createdAt,value
2019-03-01T00:01:21.097Z,18.70
2019-03-01T00:04:06.563Z,18.97
2019-03-01T00:07:08.261Z,18.73
2019-03-01T00:09:49.393Z,19.30
2019-03-01T00:13:01.015Z,18.80
2019-03-01T00:16:14.433Z,17.77
2019-03-01T00:19:12.007Z,19.17
2019-03-01T00:21:48.793Z,19.83
2019-03-01T00:24:56.388Z,18.73
2019-03-01T00:30:55.691Z,17.67
2019-03-01T00:34:03.344Z,18.03
2019-03-01T00:37:00.169Z,18.43
2019-03-01T00:40:06.113Z,18.70
2019-03-01T00:42:57.014Z,18.10
2019-03-01T00:45:26.264Z,18.70
2019-03-01T00:47:55.600Z,18.87
2019-03-01T00:50:24.963Z,19.70
2019-03-01T00:52:54.350Z,19.03
2019-03-01T00:55:23.747Z,17.90
2019-03-01T00:57:53.109Z,19.33
2019-03-01T01:00:30.689Z,19.13
2019-03-01T01:02:59.906Z,19.83
2019-03-01T01:05:29.285Z,19.50
2019-03-01T01:07:58.662Z,18.97
2019-03-01T01:10:28.057Z,19.50
2019-03-01T01:12:57.473Z,20.13
2019-03-01T01:15:26.867Z,19.07
2019-03-01T01:17:56.230Z,20.33
2019-03-01T01:20:25.603Z,19.10
2019-03-01T01:22:55.002Z,19.80
2019-03-01T01:25:24.388Z,19.63
2019-03-01T01:27:53.786Z,19.67
2019-03-01T01:30:23.168Z,19.30
2019-03-01T01:32:52.608Z,20.13
2019-03-01T01:35:21.958Z,20.03
2019-03-01T01:37:51.334Z,21.00
2019-03-01T01:40:20.668Z,19.90
2019-03-01T01:42:49.983Z,20.57
2019-03-01T01:45:19.378Z,19.63
2019-03-01T01:47:48.762Z,21.13
2019-03-01T01:50:18.117Z,19.80
2019-03-01T01:52:47.491Z,20.00
2019-03-01T01:55:16.829Z,20.93
2019-03-01T01:57:46.091Z,21.67
2019-03-01T02:00:15.427Z,20.57
2019-03-01T02:02:44.812Z,20.77
2019-03-01T02:05:15.402Z,20.97
2019-03-01T02:07:44.758Z,21.27
2019-03-01T02:10:14.128Z,20.40
2019-03-01T02:12:43.561Z,19.80
2019-03-01T02:15:13.170Z,20.73
2019-03-01T02:17:42.535Z,20.60
2019-03-01T02:20:11.896Z,19.80
2019-03-01T02:22:41.206Z,19.33
2019-03-01T02:25:11.825Z,19.97
2019-03-01T02:27:41.180Z,19.07
2019-03-01T02:30:14.221Z,19.93
2019-03-01T02:32:45.701Z,20.10
2019-03-01T02:35:16.961Z,20.60
2019-03-01T02:37:46.399Z,20.47
2019-03-01T02:40:18.319Z,20.30
2019-03-01T02:42:47.601Z,20.57
2019-03-01T02:45:18.419Z,21.93
2019-03-01T02:47:47.770Z,21.37
2019-03-01T02:50:17.978Z,21.47
2019-03-01T02:52:47.779Z,22.40
2019-03-01T02:55:18.003Z,21.20
2019-03-01T02:57:47.378Z,22.53
2019-03-01T03:00:21.515Z,22.47
2019-03-01T03:02:50.906Z,22.80
2019-03-01T03:05:20.359Z,24.23
2019-03-01T03:07:54.373Z,23.97
2019-03-01T03:10:23.783Z,24.93
2019-03-01T03:12:54.871Z,26.80
2019-03-01T03:15:30.672Z,25.90
2019-03-01T03:17:59.983Z,26.63
2019-03-01T03:20:29.294Z,25.70
2019-03-01T03:22:58.672Z,25.43
2019-03-01T03:25:28.034Z,25.27
2019-03-01T03:27:57.396Z,25.87
2019-03-01T03:30:26.868Z,26.63
2019-03-01T03:32:57.297Z,26.50
2019-03-01T03:35:26.642Z,27.43
2019-03-01T03:37:55.996Z,27.70
2019-03-01T03:40:25.364Z,28.73
2019-03-01T03:42:54.723Z,29.10
2019-03-01T03:45:24.118Z,30.07
2019-03-01T03:47:53.502Z,30.93
2019-03-01T03:50:22.855Z,31.30
2019-03-01T03:52:52.257Z,30.07
2019-03-01T03:55:21.634Z,31.30
2019-03-01T03:57:51.016Z,31.27
2019-03-01T04:00:20.524Z,33.43
2019-03-01T04:02:49.917Z,39.33
2019-03-01T04:05:19.290Z,47.60
2019-03-01T04:07:48.633Z,53.30
2019-03-01T04:10:18.030Z,64.37
2019-03-01T04:12:47.394Z,69.23
2019-03-01T04:15:16.773Z,69.07
2019-03-01T04:17:46.141Z,71.93
2019-03-01T04:20:16.638Z,71.83
2019-03-01T04:22:46.119Z,74.77
2019-03-01T04:25:15.521Z,74.23
2019-03-01T04:27:44.918Z,74.97
2019-03-01T04:30:15.875Z,77.53
2019-03-01T04:32:45.267Z,77.57
2019-03-01T04:35:15.076Z,77.23
2019-03-01T04:37:44.414Z,78.53
2019-03-01T04:40:14.122Z,78.30
2019-03-01T04:42:43.333Z,79.13
2019-03-01T04:45:12.962Z,78.43
2019-03-01T04:47:42.335Z,78.77
2019-03-01T04:50:11.816Z,75.40
2019-03-01T04:52:41.523Z,70.17
2019-03-01T04:55:13.327Z,67.10
2019-03-01T04:57:42.711Z,62.00
2019-03-01T05:00:18.075Z,58.07
2019-03-01T05:02:47.437Z,55.67
2019-03-01T05:05:17.320Z,55.80
2019-03-01T05:07:46.808Z,56.57
2019-03-01T05:10:16.217Z,56.20
2019-03-01T05:12:45.550Z,55.93
2019-03-01T05:15:16.872Z,53.00
2019-03-01T05:17:46.173Z,47.40
2019-03-01T05:20:15.560Z,46.37
2019-03-01T05:22:44.981Z,44.03
2019-03-01T05:25:14.799Z,44.77
2019-03-01T05:27:44.159Z,45.00
2019-03-01T05:30:14.667Z,40.63
2019-03-01T05:32:44.041Z,41.40
2019-03-01T05:35:13.537Z,42.03
2019-03-01T05:37:42.913Z,40.47
2019-03-01T05:40:12.881Z,38.87
2019-03-01T05:42:42.286Z,40.90
2019-03-01T05:45:14.515Z,40.90
2019-03-01T05:47:43.895Z,42.83
2019-03-01T05:50:13.519Z,42.57
2019-03-01T05:52:42.902Z,42.13
2019-03-01T05:55:12.801Z,39.00
2019-03-01T05:58:29.399Z,41.33
2019-03-01T06:01:01.802Z,39.90
2019-03-01T06:04:00.993Z,38.97
2019-03-01T06:07:02.756Z,39.70
2019-03-01T06:09:47.461Z,41.17
2019-03-01T06:12:55.701Z,39.93
2019-03-01T06:15:51.003Z,41.30
2019-03-01T06:18:56.009Z,41.80
2019-03-01T06:22:30.559Z,41.63
2019-03-01T06:25:34.401Z,41.83
2019-03-01T06:28:18.601Z,42.90
2019-03-01T06:31:32.156Z,43.33
2019-03-01T06:34:41.144Z,41.37
2019-03-01T06:37:40.590Z,41.07
2019-03-01T06:41:17.872Z,42.87
2019-03-01T06:44:13.092Z,45.50
2019-03-01T06:47:13.359Z,43.37
2019-03-01T06:50:19.872Z,43.50
2019-03-01T06:52:49.364Z,43.37
2019-03-01T06:55:47.919Z,44.93
2019-03-01T06:58:32.350Z,42.77
2019-03-01T07:01:06.646Z,44.87
2019-03-01T07:03:36.027Z,44.77
2019-03-01T07:06:05.305Z,43.90
2019-03-01T07:08:53.778Z,44.27
2019-03-01T07:11:23.163Z,43.57
2019-03-01T07:13:52.450Z,42.93
2019-03-01T07:16:21.831Z,44.07
2019-03-01T07:18:51.189Z,44.07
2019-03-01T07:21:20.498Z,42.87
2019-03-01T07:23:49.900Z,43.93
2019-03-01T07:26:19.300Z,42.60
2019-03-01T07:28:48.648Z,41.33
2019-03-01T07:31:17.936Z,41.53
2019-03-01T07:33:47.273Z,40.43
2019-03-01T07:36:16.661Z,40.90
2019-03-01T07:38:46.084Z,42.77
2019-03-01T07:41:15.491Z,41.80
2019-03-01T07:43:44.769Z,42.70
2019-03-01T07:46:14.165Z,41.10
2019-03-01T07:48:43.533Z,43.60
2019-03-01T07:51:12.913Z,42.87
2019-03-01T07:53:42.334Z,41.50
2019-03-01T07:56:11.738Z,41.47
2019-03-01T07:58:42.301Z,43.83
2019-03-01T08:01:11.640Z,42.93
2019-03-01T08:03:40.964Z,40.87
2019-03-01T08:06:13.120Z,42.07
2019-03-01T08:08:41.350Z,44.20
2019-03-01T08:11:10.802Z,42.93
2019-03-01T08:13:40.177Z,53.78
2019-03-01T08:16:12.526Z,46.37
2019-03-01T08:18:44.324Z,44.40
2019-03-01T08:21:14.791Z,44.90
2019-03-01T08:23:44.032Z,44.83
2019-03-01T08:26:13.433Z,42.07
2019-03-01T08:28:42.879Z,44.17
2019-03-01T08:31:12.259Z,45.43
2019-03-01T08:33:43.446Z,45.80
2019-03-01T08:36:12.747Z,44.70
2019-03-01T08:38:42.144Z,44.30
2019-03-01T08:41:11.573Z,44.37
2019-03-01T08:43:40.850Z,42.93
2019-03-01T08:46:10.526Z,46.60
2019-03-01T08:48:39.956Z,45.17
2019-03-01T08:51:09.372Z,43.83
2019-03-01T08:53:38.764Z,44.03
2019-03-01T08:56:11.039Z,45.23
2019-03-01T08:58:41.477Z,45.77
2019-03-01T09:01:10.912Z,44.20
2019-03-01T09:03:44.665Z,45.37
2019-03-01T09:06:14.055Z,43.03
2019-03-01T09:08:46.083Z,44.80
2019-03-01T09:11:14.540Z,44.53
2019-03-01T09:13:43.895Z,43.67
2019-03-01T09:16:13.239Z,41.73
2019-03-01T09:18:42.558Z,43.93
2019-03-01T09:21:12.787Z,42.63
2019-03-01T09:23:43.119Z,44.33
2019-03-01T09:26:12.471Z,40.57
2019-03-01T09:28:41.813Z,38.87
2019-03-01T09:31:14.195Z,40.60
2019-03-01T09:33:43.510Z,41.27
2019-03-01T09:36:18.056Z,38.70
2019-03-01T09:38:47.750Z,37.93
2019-03-01T09:41:17.133Z,38.23
2019-03-01T09:43:46.546Z,36.93
2019-03-01T09:46:15.912Z,35.87
2019-03-01T09:48:49.100Z,37.33
2019-03-01T09:51:18.600Z,35.33
2019-03-01T09:53:47.977Z,31.23
2019-03-01T09:56:17.329Z,25.43
2019-03-01T09:58:46.708Z,24.53
2019-03-01T10:01:17.653Z,26.93
2019-03-01T10:03:47.635Z,26.73
2019-03-01T10:06:17.055Z,25.03
2019-03-01T10:08:46.535Z,17.93
2019-03-01T10:11:15.923Z,17.77
2019-03-01T10:13:45.387Z,17.40
2019-03-01T10:16:14.803Z,22.13
2019-03-01T10:18:44.204Z,23.40
2019-03-01T10:21:13.614Z,21.53
2019-03-01T10:23:42.905Z,21.83
2019-03-01T10:26:12.309Z,18.93
2019-03-01T10:28:41.715Z,18.80
2019-03-01T10:31:11.170Z,18.50
2019-03-01T10:33:40.547Z,18.07
2019-03-01T10:36:09.903Z,13.67
2019-03-01T10:38:39.308Z,11.20
2019-03-01T10:41:08.594Z,13.20
2019-03-01T10:43:37.976Z,10.70
2019-03-01T10:46:07.373Z,8.60
2019-03-01T10:48:36.769Z,10.73
2019-03-01T10:51:06.175Z,10.50
2019-03-01T10:53:35.547Z,8.30
2019-03-01T10:56:04.915Z,8.83
2019-03-01T10:58:34.297Z,10.60
2019-03-01T11:01:04.076Z,9.97
2019-03-01T11:03:33.362Z,8.97
2019-03-01T11:06:02.788Z,9.43
2019-03-01T11:08:32.445Z,11.17
2019-03-01T11:11:01.849Z,10.63
2019-03-01T11:13:31.264Z,11.27
2019-03-01T11:16:00.636Z,10.67
2019-03-01T11:18:30.010Z,10.60
2019-03-01T11:20:59.426Z,11.63
2019-03-01T11:23:28.883Z,11.40
2019-03-01T11:25:58.189Z,8.60
2019-03-01T11:28:27.608Z,11.83
2019-03-01T11:30:57.024Z,11.87
2019-03-01T11:33:26.364Z,16.00
2019-03-01T11:35:55.714Z,9.60
2019-03-01T11:38:25.039Z,8.23
2019-03-01T11:40:55.919Z,7.03
2019-03-01T11:43:25.724Z,9.10
2019-03-01T11:45:55.103Z,11.60
2019-03-01T11:48:24.499Z,9.33
2019-03-01T11:50:53.885Z,9.50
2019-03-01T11:53:23.252Z,12.03
2019-03-01T11:55:52.662Z,10.13
2019-03-01T11:58:22.060Z,9.87
2019-03-01T12:00:52.322Z,10.70
2019-03-01T12:03:21.923Z,11.23
2019-03-01T12:05:51.380Z,11.07
2019-03-01T12:08:20.717Z,9.30
2019-03-01T12:10:50.122Z,10.17
2019-03-01T12:13:19.500Z,11.87
2019-03-01T12:15:48.885Z,9.70
2019-03-01T12:18:18.279Z,8.87
2019-03-01T12:20:47.611Z,9.50
2019-03-01T12:23:17.041Z,10.00
2019-03-01T12:25:46.503Z,10.97
2019-03-01T12:28:15.862Z,10.93
2019-03-01T12:30:45.277Z,12.40
2019-03-01T12:33:17.081Z,9.83
2019-03-01T12:35:46.445Z,9.80
2019-03-01T12:38:15.991Z,8.90
2019-03-01T12:40:45.387Z,8.83
2019-03-01T12:43:15.130Z,9.40
2019-03-01T12:45:44.469Z,8.83
2019-03-01T12:48:13.852Z,7.97
2019-03-01T12:50:43.204Z,8.40
2019-03-01T12:53:12.606Z,8.10
2019-03-01T12:55:42.197Z,8.77
2019-03-01T12:58:19.213Z,11.47
2019-03-01T13:00:42.758Z,9.67
2019-03-01T13:03:12.409Z,9.57
2019-03-01T13:05:41.737Z,12.10
2019-03-01T13:08:12.487Z,9.63
2019-03-01T13:10:42.139Z,9.57
2019-03-01T13:13:11.497Z,9.13
2019-03-01T13:15:40.848Z,8.70
2019-03-01T13:18:15.824Z,8.03
2019-03-01T13:20:41.317Z,9.37
2019-03-01T13:23:10.736Z,8.10
2019-03-01T13:25:40.085Z,7.53
2019-03-01T13:28:09.592Z,6.90
2019-03-01T13:30:39.054Z,6.43
2019-03-01T13:33:08.430Z,6.33
2019-03-01T13:35:37.825Z,5.93
2019-03-01T13:38:07.235Z,5.50
2019-03-01T13:40:36.502Z,5.40
2019-03-01T13:43:05.851Z,5.40
2019-03-01T13:45:35.182Z,4.90
2019-03-01T13:48:04.527Z,5.00
2019-03-01T13:50:33.867Z,5.00
2019-03-01T13:53:03.276Z,4.23
2019-03-01T13:55:32.702Z,4.47
2019-03-01T13:58:02.037Z,4.10
2019-03-01T14:00:31.471Z,5.07
2019-03-01T14:03:00.845Z,4.40
2019-03-01T14:05:30.270Z,3.80
2019-03-01T14:08:08.350Z,4.50
2019-03-01T14:10:30.727Z,3.90
2019-03-01T14:12:59.999Z,4.00
2019-03-01T14:15:30.037Z,4.23
2019-03-01T14:18:01.200Z,4.10
2019-03-01T14:20:30.617Z,3.77
2019-03-01T14:23:00.028Z,3.73
2019-03-01T14:25:29.385Z,3.57
2019-03-01T14:27:58.677Z,3.60
2019-03-01T14:30:31.170Z,3.43
2019-03-01T14:32:59.121Z,4.00
2019-03-01T14:35:28.396Z,3.60
2019-03-01T14:37:57.740Z,3.27
2019-03-01T14:40:27.571Z,3.60
2019-03-01T14:42:56.959Z,3.33
2019-03-01T14:45:26.384Z,2.90
2019-03-01T14:47:55.765Z,3.50
2019-03-01T14:50:25.387Z,3.40
2019-03-01T14:52:58.420Z,3.20
2019-03-01T14:55:41.223Z,3.03
2019-03-01T14:58:19.050Z,3.00
2019-03-01T15:00:51.892Z,3.10
2019-03-01T15:03:31.358Z,3.40
2019-03-01T15:06:00.846Z,3.23
2019-03-01T15:08:30.396Z,4.20
2019-03-01T15:11:04.399Z,2.87
2019-03-01T15:13:34.873Z,3.73
2019-03-01T15:16:04.658Z,3.17
2019-03-01T15:18:35.526Z,4.00
2019-03-01T15:21:05.590Z,6.70
2019-03-01T15:23:34.953Z,4.00
2019-03-01T15:26:04.649Z,3.27
2019-03-01T15:28:39.447Z,2.90
2019-03-01T15:31:08.835Z,3.20
2019-03-01T15:33:38.525Z,3.10
2019-03-01T15:36:07.933Z,2.90
2019-03-01T15:38:37.311Z,3.00
2019-03-01T15:41:07.225Z,3.20
2019-03-01T15:43:38.051Z,3.10
2019-03-01T15:46:07.370Z,4.47
2019-03-01T15:48:38.362Z,4.10
2019-03-01T15:51:07.803Z,5.83
2019-03-01T15:53:37.120Z,4.23
2019-03-01T15:56:07.213Z,3.77
2019-03-01T15:58:36.731Z,3.60
2019-03-01T16:01:11.057Z,3.60
2019-03-01T16:03:41.932Z,4.60
2019-03-01T16:06:17.196Z,4.17
2019-03-01T16:08:44.073Z,4.40
2019-03-01T16:11:14.463Z,3.50
2019-03-01T16:13:48.025Z,5.47
2019-03-01T16:16:14.907Z,6.33
2019-03-01T16:18:47.637Z,4.80
2019-03-01T16:21:16.996Z,4.70
2019-03-01T16:23:46.378Z,4.07
2019-03-01T16:26:15.745Z,4.07
2019-03-01T16:28:45.098Z,3.83
2019-03-01T16:31:14.487Z,5.50
2019-03-01T16:33:43.878Z,4.57
2019-03-01T16:36:19.059Z,4.07
2019-03-01T16:38:49.019Z,5.43
2019-03-01T16:41:21.466Z,4.90
2019-03-01T16:43:50.777Z,5.40
2019-03-01T16:46:22.176Z,5.00
2019-03-01T16:48:52.270Z,5.77
2019-03-01T16:51:22.397Z,9.30
2019-03-01T16:53:51.943Z,7.13
2019-03-01T16:56:21.319Z,10.83
2019-03-01T16:58:50.667Z,10.17
2019-03-01T17:01:20.057Z,17.17
2019-03-01T17:03:52.351Z,7.27
2019-03-01T17:06:20.523Z,6.93
2019-03-01T17:08:49.941Z,7.20
2019-03-01T17:11:19.290Z,9.23
2019-03-01T17:13:48.669Z,16.77
2019-03-01T17:16:20.462Z,13.87
2019-03-01T17:18:49.181Z,30.50
2019-03-01T17:21:18.600Z,21.70
2019-03-01T17:23:48.040Z,11.07
2019-03-01T17:26:17.667Z,11.13
2019-03-01T17:28:47.037Z,9.07
2019-03-01T17:31:16.477Z,8.93
2019-03-01T17:33:48.880Z,9.07
2019-03-01T17:36:17.893Z,9.00
2019-03-01T17:38:47.453Z,9.57
2019-03-01T17:41:17.102Z,9.87
2019-03-01T17:43:46.521Z,9.30
2019-03-01T17:46:19.076Z,9.00
2019-03-01T17:48:48.500Z,9.87
2019-03-01T17:51:18.277Z,8.80
2019-03-01T17:53:49.059Z,8.47
2019-03-01T17:56:21.872Z,7.70
2019-03-01T17:58:52.308Z,8.03
2019-03-01T18:01:24.573Z,7.70
2019-03-01T18:03:53.927Z,7.53
2019-03-01T18:06:23.312Z,7.30
2019-03-01T18:08:52.722Z,7.20
2019-03-01T18:11:22.149Z,7.30
2019-03-01T18:13:52.984Z,7.40
2019-03-01T18:16:24.878Z,7.90
2019-03-01T18:18:53.415Z,8.23
2019-03-01T18:21:22.675Z,8.27
2019-03-01T18:23:54.902Z,8.87
2019-03-01T18:26:24.269Z,8.83
2019-03-01T18:28:53.679Z,7.53
2019-03-01T18:31:23.457Z,7.40
2019-03-01T18:33:53.796Z,7.77
2019-03-01T18:36:23.989Z,6.10
2019-03-01T18:38:53.257Z,5.70
2019-03-01T18:41:24.189Z,6.13
2019-03-01T18:43:53.488Z,6.20
2019-03-01T18:46:22.871Z,6.07
2019-03-01T18:48:52.275Z,5.97
2019-03-01T18:51:21.537Z,5.40
2019-03-01T18:53:50.910Z,4.60
2019-03-01T18:56:20.264Z,4.20
2019-03-01T18:58:49.808Z,4.20
2019-03-01T19:01:19.286Z,3.73
2019-03-01T19:03:48.678Z,3.53
2019-03-01T19:06:17.949Z,3.70
2019-03-01T19:08:47.317Z,3.90
2019-03-01T19:11:16.718Z,3.80
2019-03-01T19:13:46.174Z,3.70
2019-03-01T19:16:15.485Z,5.17
2019-03-01T19:18:44.810Z,4.00
2019-03-01T19:21:17.389Z,3.47
2019-03-01T19:23:45.291Z,4.03
2019-03-01T19:26:14.592Z,3.60
2019-03-01T19:28:43.971Z,3.10
2019-03-01T19:31:13.371Z,3.17
2019-03-01T19:33:42.769Z,2.60
2019-03-01T19:36:12.084Z,2.80
2019-03-01T19:38:41.551Z,2.77
2019-03-01T19:41:11.002Z,9.63
2019-03-01T19:43:41.703Z,3.43
2019-03-01T19:46:12.555Z,4.67
2019-03-01T19:48:42.386Z,6.83
2019-03-01T19:51:12.054Z,3.80
2019-03-01T19:53:41.490Z,5.57
2019-03-01T19:56:10.855Z,5.13
2019-03-01T19:58:40.420Z,6.37
2019-03-01T20:01:09.802Z,9.80
2019-03-01T20:03:39.106Z,7.20
2019-03-01T20:06:08.820Z,10.27
2019-03-01T20:08:38.815Z,6.20
2019-03-01T20:11:08.219Z,3.90
2019-03-01T20:13:37.576Z,11.27
2019-03-01T20:16:07.002Z,13.70
2019-03-01T20:18:36.415Z,12.50
2019-03-01T20:21:09.454Z,8.87
2019-03-01T20:23:37.950Z,11.93
2019-03-01T20:26:10.544Z,9.67
2019-03-01T20:28:42.828Z,6.77
2019-03-01T20:31:12.297Z,24.37
2019-03-01T20:33:41.702Z,7.90
2019-03-01T20:36:13.878Z,8.17
2019-03-01T20:38:42.174Z,3.40
2019-03-01T20:41:11.686Z,3.40
2019-03-01T20:43:41.727Z,3.40
2019-03-01T20:46:14.772Z,3.27
2019-03-01T20:48:44.224Z,2.93
2019-03-01T20:51:13.534Z,3.40
2019-03-01T20:53:45.607Z,3.03
2019-03-01T20:56:16.917Z,7.37
2019-03-01T20:58:45.080Z,9.80
2019-03-01T21:01:14.635Z,3.70
2019-03-01T21:03:44.075Z,3.50
2019-03-01T21:06:13.416Z,4.27
2019-03-01T21:08:42.794Z,4.43
2019-03-01T21:11:12.244Z,6.33
2019-03-01T21:13:41.784Z,5.43
2019-03-01T21:16:11.320Z,5.80
2019-03-01T21:18:41.240Z,5.43
2019-03-01T21:21:13.180Z,5.70
2019-03-01T21:23:43.071Z,5.70
2019-03-01T21:26:15.623Z,5.40
2019-03-01T21:28:43.525Z,4.73
2019-03-01T21:31:12.936Z,4.30
2019-03-01T21:33:42.269Z,4.33
2019-03-01T21:36:11.607Z,4.40
2019-03-01T21:38:41.053Z,4.00
2019-03-01T21:41:11.546Z,4.30
2019-03-01T21:43:40.943Z,3.80
2019-03-01T21:46:15.760Z,4.20
2019-03-01T21:48:45.084Z,4.33
2019-03-01T21:51:14.870Z,4.23
2019-03-01T21:53:45.583Z,4.00
2019-03-01T21:56:14.928Z,4.07
2019-03-01T21:58:44.484Z,3.97
2019-03-01T22:01:13.788Z,4.97
2019-03-01T22:03:43.272Z,5.20
2019-03-01T22:06:12.664Z,4.93
2019-03-01T22:08:44.868Z,5.20
2019-03-01T22:11:13.561Z,5.20
2019-03-01T22:13:43.834Z,5.23
2019-03-01T22:16:13.159Z,4.70
2019-03-01T22:18:42.896Z,4.50
2019-03-01T22:21:12.349Z,4.50
2019-03-01T22:23:41.721Z,5.47
2019-03-01T22:26:15.989Z,5.77
2019-03-01T22:28:45.245Z,5.13
2019-03-01T22:31:16.631Z,5.30
2019-03-01T22:33:46.057Z,6.27
2019-03-01T22:36:18.153Z,5.77
2019-03-01T22:38:46.480Z,5.60
2019-03-01T22:41:15.931Z,6.03
2019-03-01T22:43:45.283Z,6.17
2019-03-01T22:46:14.744Z,5.87
2019-03-01T22:48:48.992Z,6.50
2019-03-01T22:51:17.938Z,6.67
2019-03-01T22:53:48.578Z,6.30
2019-03-01T22:56:17.832Z,6.07
2019-03-01T22:58:47.204Z,6.83
2019-03-01T23:01:22.218Z,6.60
2019-03-01T23:03:54.809Z,7.20
2019-03-01T23:06:25.213Z,7.60
2019-03-01T23:08:54.621Z,7.20
2019-03-01T23:11:24.053Z,7.20
2019-03-01T23:13:55.787Z,6.73
2019-03-01T23:16:24.491Z,7.80
2019-03-01T23:18:56.610Z,7.50
2019-03-01T23:21:24.902Z,7.30
2019-03-01T23:23:55.960Z,7.43
2019-03-01T23:26:25.293Z,7.00
2019-03-01T23:28:54.614Z,7.20
2019-03-01T23:31:23.869Z,7.23
2019-03-01T23:33:53.258Z,7.90
2019-03-01T23:36:25.006Z,8.20
2019-03-01T23:38:53.700Z,7.87
2019-03-01T23:41:23.000Z,7.90
2019-03-01T23:43:52.324Z,9.00
2019-03-01T23:46:21.594Z,8.73
2019-03-01T23:48:50.968Z,8.50
2019-03-01T23:51:20.243Z,9.23
2019-03-01T23:53:49.653Z,9.13
2019-03-01T23:56:19.073Z,9.83
2019-03-01T23:58:51.900Z,9.50
